Aérodrome :
LOGIN :

S'inscrire | Disclaimer

   EN    FR    IT 

 










Légende :    VFR   VFR Marginal   IFR   IFR Intensif   IFR Très Intensif
Visi : 
Plafond : 
>= 8 km
>= 3000ft
5 à 8 km
1000 à 3000 ft
1500m à 5 km
500 à 1000 ft
800 à 1500m
200 à 500 ft
< 800m
< 200 ft
Symboles :   Orages  Brouillard  Fortes neiges  Fortes précipitations  Vent > 20 kt
SIGMETs :   Divers  Orages  Givrage  Turbulence  Onde Orograph.  Cendres Volcan.







- Altitude de l'aérodrome : 20 ft


EBFN - Koksijde

DERNIER METAR :
  • 212225Z AUTO VRB02KT 9999 NCD 14/11 Q1009 BLU

METARs EXPIRÉS :
  • 212155Z AUTO VRB02KT 9999 NCD 15/12 Q1009 BLU
  • 212125Z AUTO VRB01KT 9999 NCD 15/12 Q1009 BLU
  • 212055Z AUTO VRB01KT 9999 NCD 15/12 Q1009 BLU
  • 212025Z AUTO VRB01KT 9999 NCD 17/12 Q1009 BLU
  • 211955Z AUTO VRB01KT 9999 NCD 18/11 Q1009 BLU
  • 211925Z AUTO VRB02KT 9999 NCD 19/12 Q1009 BLU

TAF TAF EBFN
Valide du 21 à 19h jusqu'au 22 à 07h UTC


211544Z 2119/2207 16010KT 9999 FEW035 SCT250
BECMG 2123/2201 18005KT BKN025
TEMPO 2201/2207 5000 -RADZ BKN020
Pas de NOTAMs connus pour ce terrain.



MET'MAP, la Météo Aéronautique d'un coup d'oeil ! - Copyright ORBIFLY Décembre 2007 - Disclaimer

ORBIFLY MET'MAP TEAM :

Programmation & Développement : Alexandra Zaïnal
Conception & Développement : Baudouin d'Aumeries
Co-Programmation & Développement : Marc-Olivier Méhu
Soutien technique & logistique : Manuel Goepfert

Contact : metmap@orbifly.com




SOURCES & CREDITS :

   NOAA